Downstream station:
SHEF ID: NFSM7 N Fork Spring River nr Purcell, MO
STATION TYPE:
STAGE RIV-FLOW
ft cfs
Ccp-Rev Ccp-Rev
(US/Central)
03/21 00:00 3.53 131
03/21 01:00 3.53 131
03/21 02:00 3.53 131
03/21 03:00 3.53 131
03/21 04:00 3.52 129
03/21 05:00 3.52 129
03/21 06:00 3.52 129
03/21 07:00 3.53 131
03/21 08:00 3.52 129
03/21 09:00 3.52 129
03/21 10:00 3.53 131
03/21 11:00 3.53 131
03/21 12:00 3.53 131
03/21 13:00 3.53 131
03/21 14:00 3.54 133
03/21 15:00 3.54 133
03/21 16:00 3.55 134
03/21 17:00 3.57 138
03/21 18:00 3.61 145
03/21 19:00 3.64 150
03/21 20:00 3.74 169
03/21 21:00 3.93 207
03/21 22:00 4.23 275
03/21 23:00 4.67 399